Pagina principală
METAR-TAF:

METAR-TAF

Aeroporturi :

Whyalla, Australia

Latitudine: 33-03-32S, longitudine: 137-30-52E, elevație: 12 m

Observații meteo curente

Raportul a fost făcut în urmă cu 28 de minute, la 08:00 UTC
Vânt 11 kt de la Nord
Temperatură 15°C
Umiditate 48%
Presiune 1016 hPa
Vizibilitate de 10 km sau mai mult

METAR: YWHA 260800Z AUTO 36011KT 9999 // ////// 15/04 Q1016

Ora: 17:58 (08:28 UTC)


TAF: lipsă

Observații și prognoze meteo pentru peste 4.000 de aeroporturi (rapoarte METAR și TAF).

Stațiile disponibile sunt reprezentate pe hartă prin puncte galbene și roșii.

Țineți indicatorul mouse-ului pe punctul dorit pentru a vedea denumirea stației.

Apoi, faceți clic pentru a vedea observațiile și prognozele meteorologice.

Pentru a schimba harta: Pentru mărire, faceți clic pe butoanele verzi cu cruce neagră; pentru micșorare, pe butonul verde cu o liniuță; pentru hărți învecinate, pe săgețile verzi.


METAR-TAF: